sensor_id;sensor_type;location;lat;lon;timestamp;P1;durP1;ratioP1;P2;durP2;ratioP2
23206;SDS011;11773;52.570;13.052;2023-06-22T00:01:53;2.17;;;1.90;;
23206;SDS011;11773;52.570;13.052;2023-06-22T00:04:23;2.07;;;1.97;;
23206;SDS011;11773;52.570;13.052;2023-06-22T00:06:53;2.00;;;1.90;;
23206;SDS011;11773;52.570;13.052;2023-06-22T00:09:22;2.13;;;1.93;;
23206;SDS011;11773;52.570;13.052;2023-06-22T00:11:52;1.87;;;1.77;;
23206;SDS011;11773;52.570;13.052;2023-06-22T00:14:21;1.80;;;1.70;;
23206;SDS011;11773;52.570;13.052;2023-06-22T00:16:51;1.80;;;1.70;;
23206;SDS011;11773;52.570;13.052;2023-06-22T00:19:25;1.63;;;1.53;;
23206;SDS011;11773;52.570;13.052;2023-06-22T00:21:55;4.10;;;1.70;;
23206;SDS011;11773;52.570;13.052;2023-06-22T00:24:26;1.70;;;1.60;;
23206;SDS011;11773;52.570;13.052;2023-06-22T00:26:56;1.80;;;1.70;;
23206;SDS011;11773;52.570;13.052;2023-06-22T00:29:26;1.43;;;1.40;;
23206;SDS011;11773;52.570;13.052;2023-06-22T00:31:55;1.63;;;1.53;;
23206;SDS011;11773;52.570;13.052;2023-06-22T00:34:25;1.93;;;1.83;;
23206;SDS011;11773;52.570;13.052;2023-06-22T00:36:54;1.80;;;1.70;;
23206;SDS011;11773;52.570;13.052;2023-06-22T00:39:24;1.80;;;1.70;;
23206;SDS011;11773;52.570;13.052;2023-06-22T00:41:54;1.67;;;1.57;;
23206;SDS011;11773;52.570;13.052;2023-06-22T00:44:24;1.70;;;1.60;;
23206;SDS011;11773;52.570;13.052;2023-06-22T00:46:54;1.87;;;1.77;;
23206;SDS011;11773;52.570;13.052;2023-06-22T00:49:23;1.80;;;1.70;;
23206;SDS011;11773;52.570;13.052;2023-06-22T00:51:53;1.53;;;1.43;;
23206;SDS011;11773;52.570;13.052;2023-06-22T00:54:24;1.57;;;1.47;;
23206;SDS011;11773;52.570;13.052;2023-06-22T00:56:55;1.50;;;1.40;;
23206;SDS011;11773;52.570;13.052;2023-06-22T00:59:26;2.00;;;1.83;;
23206;SDS011;11773;52.570;13.052;2023-06-22T01:01:56;1.60;;;1.50;;
23206;SDS011;11773;52.570;13.052;2023-06-22T01:04:34;1.77;;;1.67;;
23206;SDS011;11773;52.570;13.052;2023-06-22T01:07:07;1.60;;;1.50;;
23206;SDS011;11773;52.570;13.052;2023-06-22T01:10:07;1.80;;;1.70;;
23206;SDS011;11773;52.570;13.052;2023-06-22T01:12:58;1.93;;;1.83;;
23206;SDS011;11773;52.570;13.052;2023-06-22T01:15:46;1.53;;;1.43;;
23206;SDS011;11773;52.570;13.052;2023-06-22T01:18:38;1.77;;;1.67;;
23206;SDS011;11773;52.570;13.052;2023-06-22T01:21:13;1.70;;;1.60;;
23206;SDS011;11773;52.570;13.052;2023-06-22T01:23:50;2.07;;;1.97;;
23206;SDS011;11773;52.570;13.052;2023-06-22T01:26:45;1.80;;;1.70;;
23206;SDS011;11773;52.570;13.052;2023-06-22T01:29:33;1.70;;;1.60;;
23206;SDS011;11773;52.570;13.052;2023-06-22T01:32:06;1.80;;;1.70;;
23206;SDS011;11773;52.570;13.052;2023-06-22T01:34:38;1.70;;;1.60;;
23206;SDS011;11773;52.570;13.052;2023-06-22T01:37:10;1.97;;;1.87;;
23206;SDS011;11773;52.570;13.052;2023-06-22T01:39:40;1.73;;;1.63;;
23206;SDS011;11773;52.570;13.052;2023-06-22T01:42:10;1.83;;;1.73;;
23206;SDS011;11773;52.570;13.052;2023-06-22T01:44:40;1.90;;;1.80;;
23206;SDS011;11773;52.570;13.052;2023-06-22T01:47:11;3.03;;;2.73;;
23206;SDS011;11773;52.570;13.052;2023-06-22T01:49:41;2.17;;;2.00;;
23206;SDS011;11773;52.570;13.052;2023-06-22T01:52:11;1.87;;;1.77;;
23206;SDS011;11773;52.570;13.052;2023-06-22T01:54:41;1.67;;;1.57;;
23206;SDS011;11773;52.570;13.052;2023-06-22T01:57:10;1.47;;;1.40;;
23206;SDS011;11773;52.570;13.052;2023-06-22T01:59:48;1.60;;;1.50;;
23206;SDS011;11773;52.570;13.052;2023-06-22T02:02:54;1.90;;;1.80;;
23206;SDS011;11773;52.570;13.052;2023-06-22T02:05:22;2.10;;;2.00;;
23206;SDS011;11773;52.570;13.052;2023-06-22T02:08:02;1.90;;;1.80;;
23206;SDS011;11773;52.570;13.052;2023-06-22T02:10:51;1.97;;;1.87;;
23206;SDS011;11773;52.570;13.052;2023-06-22T02:13:24;1.93;;;1.83;;
23206;SDS011;11773;52.570;13.052;2023-06-22T02:15:54;2.07;;;1.97;;
23206;SDS011;11773;52.570;13.052;2023-06-22T02:18:25;2.20;;;2.00;;
23206;SDS011;11773;52.570;13.052;2023-06-22T02:20:55;2.07;;;1.97;;
23206;SDS011;11773;52.570;13.052;2023-06-22T02:23:24;2.43;;;2.23;;
23206;SDS011;11773;52.570;13.052;2023-06-22T02:25:55;2.80;;;2.60;;
23206;SDS011;11773;52.570;13.052;2023-06-22T02:28:25;2.70;;;2.50;;
23206;SDS011;11773;52.570;13.052;2023-06-22T02:30:55;2.13;;;2.03;;
23206;SDS011;11773;52.570;13.052;2023-06-22T02:33:24;2.20;;;2.00;;
23206;SDS011;11773;52.570;13.052;2023-06-22T02:35:54;2.00;;;1.90;;
23206;SDS011;11773;52.570;13.052;2023-06-22T02:38:24;1.53;;;1.43;;
23206;SDS011;11773;52.570;13.052;2023-06-22T02:40:53;1.87;;;1.77;;
23206;SDS011;11773;52.570;13.052;2023-06-22T02:43:23;2.10;;;2.00;;
23206;SDS011;11773;52.570;13.052;2023-06-22T02:45:52;1.77;;;1.67;;
23206;SDS011;11773;52.570;13.052;2023-06-22T02:48:23;1.97;;;1.87;;
23206;SDS011;11773;52.570;13.052;2023-06-22T02:50:53;1.87;;;1.77;;
23206;SDS011;11773;52.570;13.052;2023-06-22T02:53:22;2.20;;;2.10;;
23206;SDS011;11773;52.570;13.052;2023-06-22T02:55:52;1.87;;;1.77;;
23206;SDS011;11773;52.570;13.052;2023-06-22T02:58:22;2.17;;;2.07;;
23206;SDS011;11773;52.570;13.052;2023-06-22T03:00:51;2.00;;;1.90;;
23206;SDS011;11773;52.570;13.052;2023-06-22T03:03:21;1.60;;;1.50;;
23206;SDS011;11773;52.570;13.052;2023-06-22T03:05:52;1.90;;;1.80;;
23206;SDS011;11773;52.570;13.052;2023-06-22T03:08:22;1.60;;;1.50;;
23206;SDS011;11773;52.570;13.052;2023-06-22T03:10:52;2.00;;;1.90;;
23206;SDS011;11773;52.570;13.052;2023-06-22T03:13:21;2.10;;;2.00;;
23206;SDS011;11773;52.570;13.052;2023-06-22T03:15:51;1.60;;;1.50;;
23206;SDS011;11773;52.570;13.052;2023-06-22T03:18:21;1.90;;;1.80;;
23206;SDS011;11773;52.570;13.052;2023-06-22T03:20:50;1.60;;;1.50;;
23206;SDS011;11773;52.570;13.052;2023-06-22T03:23:20;1.67;;;1.57;;
23206;SDS011;11773;52.570;13.052;2023-06-22T03:25:50;1.70;;;1.60;;
23206;SDS011;11773;52.570;13.052;2023-06-22T03:28:19;2.30;;;1.93;;
23206;SDS011;11773;52.570;13.052;2023-06-22T03:30:49;1.67;;;1.57;;
23206;SDS011;11773;52.570;13.052;2023-06-22T03:33:19;2.00;;;1.90;;
23206;SDS011;11773;52.570;13.052;2023-06-22T03:35:49;1.67;;;1.57;;
23206;SDS011;11773;52.570;13.052;2023-06-22T03:38:19;1.90;;;1.80;;
23206;SDS011;11773;52.570;13.052;2023-06-22T03:40:48;2.00;;;1.90;;
23206;SDS011;11773;52.570;13.052;2023-06-22T03:43:18;2.10;;;2.00;;
23206;SDS011;11773;52.570;13.052;2023-06-22T03:45:48;1.90;;;1.80;;
23206;SDS011;11773;52.570;13.052;2023-06-22T03:48:17;2.37;;;2.20;;
23206;SDS011;11773;52.570;13.052;2023-06-22T03:50:47;2.00;;;1.90;;
23206;SDS011;11773;52.570;13.052;2023-06-22T03:53:17;2.43;;;2.23;;
23206;SDS011;11773;52.570;13.052;2023-06-22T03:55:52;2.00;;;1.90;;
23206;SDS011;11773;52.570;13.052;2023-06-22T03:58:22;2.60;;;2.40;;
23206;SDS011;11773;52.570;13.052;2023-06-22T04:00:52;2.43;;;2.23;;
23206;SDS011;11773;52.570;13.052;2023-06-22T04:03:21;2.60;;;2.40;;
23206;SDS011;11773;52.570;13.052;2023-06-22T04:05:51;2.10;;;2.00;;
23206;SDS011;11773;52.570;13.052;2023-06-22T04:08:21;2.10;;;2.00;;
23206;SDS011;11773;52.570;13.052;2023-06-22T04:10:50;1.70;;;1.60;;
23206;SDS011;11773;52.570;13.052;2023-06-22T04:13:20;1.63;;;1.53;;
23206;SDS011;11773;52.570;13.052;2023-06-22T04:15:50;1.80;;;1.70;;
23206;SDS011;11773;52.570;13.052;2023-06-22T04:18:19;1.93;;;1.83;;
23206;SDS011;11773;52.570;13.052;2023-06-22T04:20:49;1.97;;;1.87;;
23206;SDS011;11773;52.570;13.052;2023-06-22T04:23:18;2.50;;;2.30;;
23206;SDS011;11773;52.570;13.052;2023-06-22T04:25:48;1.93;;;1.83;;
23206;SDS011;11773;52.570;13.052;2023-06-22T04:28:18;2.50;;;2.30;;
23206;SDS011;11773;52.570;13.052;2023-06-22T04:30:48;2.03;;;1.93;;
23206;SDS011;11773;52.570;13.052;2023-06-22T04:33:17;2.50;;;2.30;;
23206;SDS011;11773;52.570;13.052;2023-06-22T04:35:47;1.83;;;1.73;;
23206;SDS011;11773;52.570;13.052;2023-06-22T04:38:17;2.87;;;1.90;;
23206;SDS011;11773;52.570;13.052;2023-06-22T04:40:49;2.00;;;1.90;;
23206;SDS011;11773;52.570;13.052;2023-06-22T04:43:20;2.13;;;2.03;;
23206;SDS011;11773;52.570;13.052;2023-06-22T04:45:50;2.00;;;1.90;;
23206;SDS011;11773;52.570;13.052;2023-06-22T04:48:19;2.33;;;2.20;;
23206;SDS011;11773;52.570;13.052;2023-06-22T04:50:49;2.90;;;2.70;;
23206;SDS011;11773;52.570;13.052;2023-06-22T04:53:19;2.80;;;2.60;;
23206;SDS011;11773;52.570;13.052;2023-06-22T04:55:48;2.83;;;2.63;;
23206;SDS011;11773;52.570;13.052;2023-06-22T04:58:20;2.90;;;2.70;;
23206;SDS011;11773;52.570;13.052;2023-06-22T05:00:49;2.80;;;2.60;;
23206;SDS011;11773;52.570;13.052;2023-06-22T05:03:19;2.70;;;2.50;;
23206;SDS011;11773;52.570;13.052;2023-06-22T05:05:49;2.47;;;2.27;;
23206;SDS011;11773;52.570;13.052;2023-06-22T05:08:18;2.67;;;2.47;;
23206;SDS011;11773;52.570;13.052;2023-06-22T05:10:48;2.53;;;2.33;;
23206;SDS011;11773;52.570;13.052;2023-06-22T05:13:19;2.37;;;2.17;;
23206;SDS011;11773;52.570;13.052;2023-06-22T05:15:49;2.73;;;2.53;;
23206;SDS011;11773;52.570;13.052;2023-06-22T05:18:18;2.10;;;2.00;;
23206;SDS011;11773;52.570;13.052;2023-06-22T05:20:50;3.00;;;2.80;;
23206;SDS011;11773;52.570;13.052;2023-06-22T05:23:19;2.40;;;2.20;;
23206;SDS011;11773;52.570;13.052;2023-06-22T05:25:49;2.20;;;2.10;;
23206;SDS011;11773;52.570;13.052;2023-06-22T05:28:19;2.10;;;2.00;;
23206;SDS011;11773;52.570;13.052;2023-06-22T05:30:50;2.70;;;2.50;;
23206;SDS011;11773;52.570;13.052;2023-06-22T05:33:20;2.50;;;2.30;;
23206;SDS011;11773;52.570;13.052;2023-06-22T05:35:49;2.60;;;2.40;;
23206;SDS011;11773;52.570;13.052;2023-06-22T05:38:19;2.50;;;2.30;;
23206;SDS011;11773;52.570;13.052;2023-06-22T05:40:48;2.20;;;2.10;;
23206;SDS011;11773;52.570;13.052;2023-06-22T05:43:18;3.23;;;2.93;;
23206;SDS011;11773;52.570;13.052;2023-06-22T05:45:48;3.00;;;2.80;;
23206;SDS011;11773;52.570;13.052;2023-06-22T05:48:17;2.40;;;2.30;;
23206;SDS011;11773;52.570;13.052;2023-06-22T05:50:47;3.33;;;3.00;;
23206;SDS011;11773;52.570;13.052;2023-06-22T05:53:16;2.93;;;2.70;;
23206;SDS011;11773;52.570;13.052;2023-06-22T05:55:46;3.10;;;2.90;;
23206;SDS011;11773;52.570;13.052;2023-06-22T05:58:16;3.63;;;3.33;;
23206;SDS011;11773;52.570;13.052;2023-06-22T06:00:45;3.60;;;3.30;;
23206;SDS011;11773;52.570;13.052;2023-06-22T06:03:15;3.30;;;3.10;;
23206;SDS011;11773;52.570;13.052;2023-06-22T06:05:45;2.60;;;2.47;;
23206;SDS011;11773;52.570;13.052;2023-06-22T06:08:14;2.67;;;2.47;;
23206;SDS011;11773;52.570;13.052;2023-06-22T06:10:44;3.37;;;3.17;;
23206;SDS011;11773;52.570;13.052;2023-06-22T06:13:13;3.67;;;3.00;;
23206;SDS011;11773;52.570;13.052;2023-06-22T06:15:43;3.40;;;3.10;;
23206;SDS011;11773;52.570;13.052;2023-06-22T06:18:13;2.90;;;2.70;;
23206;SDS011;11773;52.570;13.052;2023-06-22T06:20:43;2.37;;;2.23;;
23206;SDS011;11773;52.570;13.052;2023-06-22T06:23:12;3.00;;;2.80;;
23206;SDS011;11773;52.570;13.052;2023-06-22T06:25:42;2.70;;;2.50;;
23206;SDS011;11773;52.570;13.052;2023-06-22T06:28:12;3.03;;;2.63;;
23206;SDS011;11773;52.570;13.052;2023-06-22T06:30:41;2.80;;;2.60;;
23206;SDS011;11773;52.570;13.052;2023-06-22T06:33:11;3.77;;;2.93;;
23206;SDS011;11773;52.570;13.052;2023-06-22T06:35:40;3.00;;;2.80;;
23206;SDS011;11773;52.570;13.052;2023-06-22T06:38:10;2.97;;;2.70;;
23206;SDS011;11773;52.570;13.052;2023-06-22T06:40:40;3.20;;;2.70;;
23206;SDS011;11773;52.570;13.052;2023-06-22T06:43:10;2.60;;;2.40;;
23206;SDS011;11773;52.570;13.052;2023-06-22T06:45:40;2.63;;;2.43;;
23206;SDS011;11773;52.570;13.052;2023-06-22T06:48:10;2.80;;;2.60;;
23206;SDS011;11773;52.570;13.052;2023-06-22T06:50:40;2.30;;;2.20;;
23206;SDS011;11773;52.570;13.052;2023-06-22T06:53:10;2.60;;;2.40;;
23206;SDS011;11773;52.570;13.052;2023-06-22T06:55:40;2.50;;;2.30;;
23206;SDS011;11773;52.570;13.052;2023-06-22T06:58:11;2.00;;;1.83;;
23206;SDS011;11773;52.570;13.052;2023-06-22T07:00:42;2.40;;;2.20;;
23206;SDS011;11773;52.570;13.052;2023-06-22T07:03:11;1.77;;;1.67;;
23206;SDS011;11773;52.570;13.052;2023-06-22T07:05:41;1.83;;;1.73;;
23206;SDS011;11773;52.570;13.052;2023-06-22T07:08:10;1.73;;;1.63;;
23206;SDS011;11773;52.570;13.052;2023-06-22T07:10:40;2.07;;;1.90;;
23206;SDS011;11773;52.570;13.052;2023-06-22T07:13:10;2.00;;;1.90;;
23206;SDS011;11773;52.570;13.052;2023-06-22T07:15:39;2.00;;;1.90;;
23206;SDS011;11773;52.570;13.052;2023-06-22T07:18:09;1.50;;;1.40;;
23206;SDS011;11773;52.570;13.052;2023-06-22T07:20:38;1.57;;;1.47;;
23206;SDS011;11773;52.570;13.052;2023-06-22T07:23:08;1.53;;;1.43;;
23206;SDS011;11773;52.570;13.052;2023-06-22T07:25:38;1.60;;;1.20;;
23206;SDS011;11773;52.570;13.052;2023-06-22T07:28:08;1.50;;;1.40;;
23206;SDS011;11773;52.570;13.052;2023-06-22T07:30:38;1.43;;;1.33;;
23206;SDS011;11773;52.570;13.052;2023-06-22T07:33:07;1.63;;;1.53;;
23206;SDS011;11773;52.570;13.052;2023-06-22T07:35:37;1.50;;;1.40;;
23206;SDS011;11773;52.570;13.052;2023-06-22T07:38:07;1.63;;;1.40;;
23206;SDS011;11773;52.570;13.052;2023-06-22T07:40:36;1.40;;;1.30;;
23206;SDS011;11773;52.570;13.052;2023-06-22T07:43:06;1.43;;;1.33;;
23206;SDS011;11773;52.570;13.052;2023-06-22T07:45:37;1.30;;;1.20;;
23206;SDS011;11773;52.570;13.052;2023-06-22T07:48:09;1.63;;;1.53;;
23206;SDS011;11773;52.570;13.052;2023-06-22T07:50:38;1.70;;;1.60;;
23206;SDS011;11773;52.570;13.052;2023-06-22T07:53:08;1.70;;;1.60;;
23206;SDS011;11773;52.570;13.052;2023-06-22T07:55:37;1.83;;;1.73;;
23206;SDS011;11773;52.570;13.052;2023-06-22T07:58:07;1.70;;;1.60;;
23206;SDS011;11773;52.570;13.052;2023-06-22T08:00:36;1.67;;;1.57;;
23206;SDS011;11773;52.570;13.052;2023-06-22T08:03:06;1.40;;;1.30;;
23206;SDS011;11773;52.570;13.052;2023-06-22T08:05:36;1.70;;;1.60;;
23206;SDS011;11773;52.570;13.052;2023-06-22T08:08:06;1.60;;;1.50;;
23206;SDS011;11773;52.570;13.052;2023-06-22T08:10:35;1.77;;;1.40;;
23206;SDS011;11773;52.570;13.052;2023-06-22T08:13:05;2.17;;;1.83;;
23206;SDS011;11773;52.570;13.052;2023-06-22T08:15:34;1.87;;;1.70;;
23206;SDS011;11773;52.570;13.052;2023-06-22T08:18:04;2.13;;;1.93;;
23206;SDS011;11773;52.570;13.052;2023-06-22T08:20:34;2.37;;;1.47;;
23206;SDS011;11773;52.570;13.052;2023-06-22T08:23:04;1.90;;;1.80;;
23206;SDS011;11773;52.570;13.052;2023-06-22T08:25:34;1.60;;;1.50;;
23206;SDS011;11773;52.570;13.052;2023-06-22T08:28:04;1.50;;;1.40;;
23206;SDS011;11773;52.570;13.052;2023-06-22T08:30:34;1.60;;;1.50;;
23206;SDS011;11773;52.570;13.052;2023-06-22T08:33:04;1.57;;;1.10;;
23206;SDS011;11773;52.570;13.052;2023-06-22T08:35:33;1.80;;;1.63;;
23206;SDS011;11773;52.570;13.052;2023-06-22T08:38:03;2.20;;;2.00;;
23206;SDS011;11773;52.570;13.052;2023-06-22T08:40:32;1.93;;;1.83;;
23206;SDS011;11773;52.570;13.052;2023-06-22T08:43:02;1.57;;;1.47;;
23206;SDS011;11773;52.570;13.052;2023-06-22T08:45:32;1.30;;;1.20;;
23206;SDS011;11773;52.570;13.052;2023-06-22T08:48:02;1.80;;;1.70;;
23206;SDS011;11773;52.570;13.052;2023-06-22T08:50:32;1.70;;;1.60;;
23206;SDS011;11773;52.570;13.052;2023-06-22T08:53:01;1.70;;;1.60;;
23206;SDS011;11773;52.570;13.052;2023-06-22T08:55:33;1.10;;;1.10;;
23206;SDS011;11773;52.570;13.052;2023-06-22T08:58:02;1.73;;;1.63;;
23206;SDS011;11773;52.570;13.052;2023-06-22T09:00:32;1.80;;;1.70;;
23206;SDS011;11773;52.570;13.052;2023-06-22T09:03:02;1.50;;;1.40;;
23206;SDS011;11773;52.570;13.052;2023-06-22T09:05:32;1.57;;;1.47;;
23206;SDS011;11773;52.570;13.052;2023-06-22T09:08:02;1.50;;;1.40;;
23206;SDS011;11773;52.570;13.052;2023-06-22T09:10:32;1.57;;;1.47;;
23206;SDS011;11773;52.570;13.052;2023-06-22T09:13:01;1.60;;;1.50;;
23206;SDS011;11773;52.570;13.052;2023-06-22T09:15:31;1.47;;;1.37;;
23206;SDS011;11773;52.570;13.052;2023-06-22T09:18:01;1.37;;;1.27;;
23206;SDS011;11773;52.570;13.052;2023-06-22T09:20:31;1.10;;;1.10;;
23206;SDS011;11773;52.570;13.052;2023-06-22T09:23:01;1.97;;;1.53;;
23206;SDS011;11773;52.570;13.052;2023-06-22T09:25:30;1.60;;;1.50;;
23206;SDS011;11773;52.570;13.052;2023-06-22T09:28:00;1.77;;;1.67;;
23206;SDS011;11773;52.570;13.052;2023-06-22T09:30:30;1.60;;;1.50;;
23206;SDS011;11773;52.570;13.052;2023-06-22T09:32:59;1.80;;;1.70;;
23206;SDS011;11773;52.570;13.052;2023-06-22T09:35:29;1.83;;;1.70;;
23206;SDS011;11773;52.570;13.052;2023-06-22T09:37:59;1.47;;;1.37;;
23206;SDS011;11773;52.570;13.052;2023-06-22T09:40:28;1.20;;;1.10;;
23206;SDS011;11773;52.570;13.052;2023-06-22T09:43:00;1.20;;;1.20;;
23206;SDS011;11773;52.570;13.052;2023-06-22T09:45:29;1.40;;;1.30;;
23206;SDS011;11773;52.570;13.052;2023-06-22T09:47:59;1.70;;;1.60;;
23206;SDS011;11773;52.570;13.052;2023-06-22T09:50:29;1.50;;;1.40;;
23206;SDS011;11773;52.570;13.052;2023-06-22T09:52:59;2.20;;;2.10;;
23206;SDS011;11773;52.570;13.052;2023-06-22T09:55:28;1.60;;;1.50;;
23206;SDS011;11773;52.570;13.052;2023-06-22T09:57:58;1.77;;;1.67;;
23206;SDS011;11773;52.570;13.052;2023-06-22T10:00:28;1.70;;;1.60;;
23206;SDS011;11773;52.570;13.052;2023-06-22T10:02:58;1.70;;;1.60;;
23206;SDS011;11773;52.570;13.052;2023-06-22T10:05:28;1.50;;;1.40;;
23206;SDS011;11773;52.570;13.052;2023-06-22T10:07:59;2.07;;;1.40;;
23206;SDS011;11773;52.570;13.052;2023-06-22T10:10:28;1.67;;;1.57;;
23206;SDS011;11773;52.570;13.052;2023-06-22T10:13:03;1.60;;;1.50;;
23206;SDS011;11773;52.570;13.052;2023-06-22T10:15:32;2.37;;;1.63;;
23206;SDS011;11773;52.570;13.052;2023-06-22T10:18:02;1.47;;;1.37;;
23206;SDS011;11773;52.570;13.052;2023-06-22T10:20:32;1.60;;;1.50;;
23206;SDS011;11773;52.570;13.052;2023-06-22T10:23:02;1.50;;;1.40;;
23206;SDS011;11773;52.570;13.052;2023-06-22T10:25:31;1.80;;;1.60;;
23206;SDS011;11773;52.570;13.052;2023-06-22T10:28:01;1.80;;;1.70;;
23206;SDS011;11773;52.570;13.052;2023-06-22T10:30:31;1.80;;;1.70;;
23206;SDS011;11773;52.570;13.052;2023-06-22T10:33:01;2.33;;;2.13;;
23206;SDS011;11773;52.570;13.052;2023-06-22T10:35:30;1.60;;;1.50;;
23206;SDS011;11773;52.570;13.052;2023-06-22T10:38:00;1.60;;;1.50;;
23206;SDS011;11773;52.570;13.052;2023-06-22T10:40:29;1.70;;;1.60;;
23206;SDS011;11773;52.570;13.052;2023-06-22T10:42:59;1.63;;;1.53;;
23206;SDS011;11773;52.570;13.052;2023-06-22T10:45:29;1.57;;;1.47;;
23206;SDS011;11773;52.570;13.052;2023-06-22T10:47:59;2.03;;;1.93;;
23206;SDS011;11773;52.570;13.052;2023-06-22T10:50:29;1.90;;;1.80;;
23206;SDS011;11773;52.570;13.052;2023-06-22T10:52:58;1.60;;;1.50;;
23206;SDS011;11773;52.570;13.052;2023-06-22T10:55:28;2.50;;;2.30;;
23206;SDS011;11773;52.570;13.052;2023-06-22T10:58:00;1.97;;;1.87;;
23206;SDS011;11773;52.570;13.052;2023-06-22T11:00:31;1.57;;;1.47;;
23206;SDS011;11773;52.570;13.052;2023-06-22T11:03:00;1.80;;;1.70;;
23206;SDS011;11773;52.570;13.052;2023-06-22T11:05:31;2.07;;;1.97;;
23206;SDS011;11773;52.570;13.052;2023-06-22T11:08:02;2.13;;;2.03;;
23206;SDS011;11773;52.570;13.052;2023-06-22T11:10:32;2.10;;;2.00;;
23206;SDS011;11773;52.570;13.052;2023-06-22T11:13:01;2.70;;;2.50;;
23206;SDS011;11773;52.570;13.052;2023-06-22T11:15:32;2.00;;;1.90;;
23206;SDS011;11773;52.570;13.052;2023-06-22T11:18:01;2.37;;;2.20;;
23206;SDS011;11773;52.570;13.052;2023-06-22T11:20:33;2.37;;;2.23;;
23206;SDS011;11773;52.570;13.052;2023-06-22T11:23:07;2.13;;;2.03;;
23206;SDS011;11773;52.570;13.052;2023-06-22T11:25:39;2.10;;;2.00;;
23206;SDS011;11773;52.570;13.052;2023-06-22T11:28:09;2.07;;;1.97;;
23206;SDS011;11773;52.570;13.052;2023-06-22T11:30:39;1.67;;;1.57;;
23206;SDS011;11773;52.570;13.052;2023-06-22T11:33:09;1.70;;;1.60;;
23206;SDS011;11773;52.570;13.052;2023-06-22T11:35:38;1.70;;;1.60;;
23206;SDS011;11773;52.570;13.052;2023-06-22T11:38:08;1.67;;;1.57;;
23206;SDS011;11773;52.570;13.052;2023-06-22T11:40:38;2.00;;;1.90;;
23206;SDS011;11773;52.570;13.052;2023-06-22T11:43:07;1.97;;;1.87;;
23206;SDS011;11773;52.570;13.052;2023-06-22T11:45:37;1.93;;;1.83;;
23206;SDS011;11773;52.570;13.052;2023-06-22T11:48:06;1.83;;;1.73;;
23206;SDS011;11773;52.570;13.052;2023-06-22T11:50:36;2.10;;;1.80;;
23206;SDS011;11773;52.570;13.052;2023-06-22T11:53:05;2.20;;;2.10;;
23206;SDS011;11773;52.570;13.052;2023-06-22T11:55:35;2.33;;;2.23;;
23206;SDS011;11773;52.570;13.052;2023-06-22T11:58:05;2.10;;;1.97;;
23206;SDS011;11773;52.570;13.052;2023-06-22T12:00:35;1.90;;;1.80;;
23206;SDS011;11773;52.570;13.052;2023-06-22T12:03:06;2.10;;;2.00;;
23206;SDS011;11773;52.570;13.052;2023-06-22T12:05:36;1.97;;;1.87;;
23206;SDS011;11773;52.570;13.052;2023-06-22T12:08:06;2.03;;;1.93;;
23206;SDS011;11773;52.570;13.052;2023-06-22T12:10:36;1.90;;;1.73;;
23206;SDS011;11773;52.570;13.052;2023-06-22T12:13:06;2.73;;;2.53;;
23206;SDS011;11773;52.570;13.052;2023-06-22T12:15:35;2.53;;;2.40;;
23206;SDS011;11773;52.570;13.052;2023-06-22T12:18:05;2.70;;;2.50;;
23206;SDS011;11773;52.570;13.052;2023-06-22T12:20:36;1.93;;;1.83;;
23206;SDS011;11773;52.570;13.052;2023-06-22T12:23:06;2.30;;;2.20;;
23206;SDS011;11773;52.570;13.052;2023-06-22T12:25:35;2.80;;;2.60;;
23206;SDS011;11773;52.570;13.052;2023-06-22T12:28:05;2.20;;;2.10;;
23206;SDS011;11773;52.570;13.052;2023-06-22T12:30:34;2.73;;;2.53;;
23206;SDS011;11773;52.570;13.052;2023-06-22T12:33:04;2.67;;;2.47;;
23206;SDS011;11773;52.570;13.052;2023-06-22T12:35:34;1.97;;;1.87;;
23206;SDS011;11773;52.570;13.052;2023-06-22T12:38:03;2.20;;;2.10;;
23206;SDS011;11773;52.570;13.052;2023-06-22T12:40:35;2.70;;;2.50;;
23206;SDS011;11773;52.570;13.052;2023-06-22T12:43:04;2.20;;;2.10;;
23206;SDS011;11773;52.570;13.052;2023-06-22T12:45:34;2.30;;;2.20;;
23206;SDS011;11773;52.570;13.052;2023-06-22T12:48:04;2.20;;;2.10;;
23206;SDS011;11773;52.570;13.052;2023-06-22T12:50:35;2.03;;;1.93;;
23206;SDS011;11773;52.570;13.052;2023-06-22T12:53:05;2.13;;;2.03;;
23206;SDS011;11773;52.570;13.052;2023-06-22T12:55:34;2.20;;;2.10;;
23206;SDS011;11773;52.570;13.052;2023-06-22T12:58:04;2.80;;;2.60;;
23206;SDS011;11773;52.570;13.052;2023-06-22T13:00:34;2.10;;;2.00;;
23206;SDS011;11773;52.570;13.052;2023-06-22T13:03:03;2.33;;;2.20;;
23206;SDS011;11773;52.570;13.052;2023-06-22T13:05:33;2.30;;;2.20;;
23206;SDS011;11773;52.570;13.052;2023-06-22T13:08:03;2.10;;;2.00;;
23206;SDS011;11773;52.570;13.052;2023-06-22T13:10:33;1.97;;;1.87;;
23206;SDS011;11773;52.570;13.052;2023-06-22T13:13:02;2.37;;;2.17;;
23206;SDS011;11773;52.570;13.052;2023-06-22T13:15:32;2.83;;;2.63;;
23206;SDS011;11773;52.570;13.052;2023-06-22T13:18:01;2.97;;;2.77;;
23206;SDS011;11773;52.570;13.052;2023-06-22T13:20:31;2.93;;;2.73;;
23206;SDS011;11773;52.570;13.052;2023-06-22T13:23:02;2.20;;;2.10;;
23206;SDS011;11773;52.570;13.052;2023-06-22T13:25:32;2.00;;;1.90;;
23206;SDS011;11773;52.570;13.052;2023-06-22T13:28:02;2.63;;;2.30;;
23206;SDS011;11773;52.570;13.052;2023-06-22T13:30:33;2.23;;;2.13;;
23206;SDS011;11773;52.570;13.052;2023-06-22T13:33:03;2.70;;;2.50;;
23206;SDS011;11773;52.570;13.052;2023-06-22T13:35:32;2.93;;;2.73;;
23206;SDS011;11773;52.570;13.052;2023-06-22T13:38:05;2.80;;;2.60;;
23206;SDS011;11773;52.570;13.052;2023-06-22T13:40:36;2.80;;;2.60;;
23206;SDS011;11773;52.570;13.052;2023-06-22T13:43:06;2.33;;;2.23;;
23206;SDS011;11773;52.570;13.052;2023-06-22T13:45:35;2.53;;;2.40;;
23206;SDS011;11773;52.570;13.052;2023-06-22T13:48:05;2.70;;;2.50;;
23206;SDS011;11773;52.570;13.052;2023-06-22T13:50:35;2.90;;;2.70;;
23206;SDS011;11773;52.570;13.052;2023-06-22T13:53:11;2.20;;;2.10;;
23206;SDS011;11773;52.570;13.052;2023-06-22T13:55:35;2.80;;;2.60;;
23206;SDS011;11773;52.570;13.052;2023-06-22T13:58:05;2.53;;;2.33;;
23206;SDS011;11773;52.570;13.052;2023-06-22T14:00:35;2.27;;;2.10;;
23206;SDS011;11773;52.570;13.052;2023-06-22T14:03:05;2.50;;;2.30;;
23206;SDS011;11773;52.570;13.052;2023-06-22T14:05:35;2.20;;;2.10;;
23206;SDS011;11773;52.570;13.052;2023-06-22T14:08:04;2.60;;;2.40;;
23206;SDS011;11773;52.570;13.052;2023-06-22T14:10:35;2.60;;;2.40;;
23206;SDS011;11773;52.570;13.052;2023-06-22T14:13:05;2.43;;;2.23;;
23206;SDS011;11773;52.570;13.052;2023-06-22T14:15:35;2.80;;;2.60;;
23206;SDS011;11773;52.570;13.052;2023-06-22T14:18:05;2.00;;;1.90;;
23206;SDS011;11773;52.570;13.052;2023-06-22T14:20:34;2.00;;;1.90;;
23206;SDS011;11773;52.570;13.052;2023-06-22T14:23:04;2.97;;;2.77;;
23206;SDS011;11773;52.570;13.052;2023-06-22T14:25:34;2.33;;;2.23;;
23206;SDS011;11773;52.570;13.052;2023-06-22T14:28:05;2.40;;;2.20;;
23206;SDS011;11773;52.570;13.052;2023-06-22T14:34:30;2.70;;;2.50;;
23206;SDS011;11773;52.570;13.052;2023-06-22T14:37:02;2.73;;;2.53;;
23206;SDS011;11773;52.570;13.052;2023-06-22T14:39:33;2.60;;;2.40;;
23206;SDS011;11773;52.570;13.052;2023-06-22T14:42:03;3.17;;;2.97;;
23206;SDS011;11773;52.570;13.052;2023-06-22T14:44:33;2.37;;;2.27;;
23206;SDS011;11773;52.570;13.052;2023-06-22T14:47:03;2.87;;;2.67;;
23206;SDS011;11773;52.570;13.052;2023-06-22T14:49:33;2.23;;;2.13;;
23206;SDS011;11773;52.570;13.052;2023-06-22T14:52:03;2.90;;;2.70;;
23206;SDS011;11773;52.570;13.052;2023-06-22T14:54:33;2.20;;;2.10;;
23206;SDS011;11773;52.570;13.052;2023-06-22T14:57:03;2.47;;;2.37;;